sensor_id;sensor_type;location;lat;lon;timestamp;pressure;altitude;pressure_sealevel;temperature;humidity
40073;BME280;25774;52.256;9.356;2022-08-19T00:00:07;100237.72;;;19.80;100.00
40073;BME280;25774;52.256;9.356;2022-08-19T00:02:34;100227.56;;;20.29;100.00
40073;BME280;25774;52.256;9.356;2022-08-19T00:05:00;100197.16;;;20.38;100.00
40073;BME280;25774;52.256;9.356;2022-08-19T00:07:25;100179.22;;;19.85;100.00
40073;BME280;25774;52.256;9.356;2022-08-19T00:09:51;100202.47;;;20.66;100.00
40073;BME280;25774;52.256;9.356;2022-08-19T00:12:17;100183.63;;;20.22;100.00
40073;BME280;25774;52.256;9.356;2022-08-19T00:14:43;100180.41;;;20.54;100.00
40073;BME280;25774;52.256;9.356;2022-08-19T00:17:09;100172.78;;;20.85;100.00
40073;BME280;25774;52.256;9.356;2022-08-19T00:19:38;100174.69;;;21.19;100.00
40073;BME280;25774;52.256;9.356;2022-08-19T00:22:03;100155.53;;;21.14;100.00
40073;BME280;25774;52.256;9.356;2022-08-19T00:24:30;100142.63;;;21.18;100.00
40073;BME280;25774;52.256;9.356;2022-08-19T00:26:56;100137.91;;;21.11;100.00
40073;BME280;25774;52.256;9.356;2022-08-19T00:29:22;100143.03;;;20.97;100.00
40073;BME280;25774;52.256;9.356;2022-08-19T00:31:48;100151.50;;;20.84;100.00
40073;BME280;25774;52.256;9.356;2022-08-19T00:34:15;100171.75;;;21.04;100.00
40073;BME280;25774;52.256;9.356;2022-08-19T00:36:41;100150.38;;;20.95;100.00
40073;BME280;25774;52.256;9.356;2022-08-19T00:39:08;100154.78;;;20.52;100.00
40073;BME280;25774;52.256;9.356;2022-08-19T00:41:33;100149.84;;;20.29;100.00
40073;BME280;25774;52.256;9.356;2022-08-19T00:44:04;100156.81;;;20.22;100.00
40073;BME280;25774;52.256;9.356;2022-08-19T00:46:31;100149.69;;;20.13;100.00
40073;BME280;25774;52.256;9.356;2022-08-19T00:49:00;100156.81;;;19.49;100.00
40073;BME280;25774;52.256;9.356;2022-08-19T00:51:29;100155.22;;;19.66;100.00
40073;BME280;25774;52.256;9.356;2022-08-19T00:53:58;100164.00;;;19.21;100.00
40073;BME280;25774;52.256;9.356;2022-08-19T00:56:26;100152.69;;;19.27;100.00
40073;BME280;25774;52.256;9.356;2022-08-19T00:58:52;100167.88;;;18.99;100.00
40073;BME280;25774;52.256;9.356;2022-08-19T01:01:18;100184.88;;;18.98;100.00
40073;BME280;25774;52.256;9.356;2022-08-19T01:03:43;100190.97;;;18.90;100.00
40073;BME280;25774;52.256;9.356;2022-08-19T01:06:09;100193.34;;;18.93;100.00
40073;BME280;25774;52.256;9.356;2022-08-19T01:08:34;100197.59;;;18.86;100.00
40073;BME280;25774;52.256;9.356;2022-08-19T01:11:00;100200.28;;;18.76;100.00
40073;BME280;25774;52.256;9.356;2022-08-19T01:13:29;100212.66;;;18.77;100.00
40073;BME280;25774;52.256;9.356;2022-08-19T01:16:00;100225.25;;;19.04;100.00
40073;BME280;25774;52.256;9.356;2022-08-19T01:18:32;100221.97;;;19.30;100.00
40073;BME280;25774;52.256;9.356;2022-08-19T01:21:05;100201.59;;;19.66;100.00
40073;BME280;25774;52.256;9.356;2022-08-19T01:23:32;100193.81;;;19.91;100.00
40073;BME280;25774;52.256;9.356;2022-08-19T01:26:16;100163.72;;;20.25;100.00
40073;BME280;25774;52.256;9.356;2022-08-19T01:28:44;100126.81;;;20.36;100.00
40073;BME280;25774;52.256;9.356;2022-08-19T01:31:14;100096.63;;;19.81;100.00
40073;BME280;25774;52.256;9.356;2022-08-19T01:33:40;100125.44;;;19.14;100.00
40073;BME280;25774;52.256;9.356;2022-08-19T01:36:14;100142.88;;;19.18;100.00
40073;BME280;25774;52.256;9.356;2022-08-19T01:38:42;100149.03;;;18.62;100.00
40073;BME280;25774;52.256;9.356;2022-08-19T01:41:11;100181.56;;;18.57;100.00
40073;BME280;25774;52.256;9.356;2022-08-19T01:43:37;100196.59;;;18.87;100.00
40073;BME280;25774;52.256;9.356;2022-08-19T01:46:03;100192.44;;;19.22;100.00
40073;BME280;25774;52.256;9.356;2022-08-19T01:48:40;100193.94;;;19.62;100.00
40073;BME280;25774;52.256;9.356;2022-08-19T01:51:06;100153.44;;;20.02;100.00
40073;BME280;25774;52.256;9.356;2022-08-19T01:53:32;100107.59;;;19.69;100.00
40073;BME280;25774;52.256;9.356;2022-08-19T01:55:58;100112.50;;;19.37;100.00
40073;BME280;25774;52.256;9.356;2022-08-19T01:58:47;100127.06;;;19.52;100.00
40073;BME280;25774;52.256;9.356;2022-08-19T02:01:14;100124.28;;;19.99;100.00
40073;BME280;25774;52.256;9.356;2022-08-19T02:03:40;100096.09;;;20.13;100.00
40073;BME280;25774;52.256;9.356;2022-08-19T02:06:05;100077.59;;;19.38;100.00
40073;BME280;25774;52.256;9.356;2022-08-19T02:08:32;100109.22;;;18.78;100.00
40073;BME280;25774;52.256;9.356;2022-08-19T02:10:59;100139.91;;;18.45;100.00
40073;BME280;25774;52.256;9.356;2022-08-19T02:13:25;100178.09;;;19.13;100.00
40073;BME280;25774;52.256;9.356;2022-08-19T02:15:51;100164.34;;;18.89;100.00
40073;BME280;25774;52.256;9.356;2022-08-19T02:18:18;100166.34;;;18.67;100.00
40073;BME280;25774;52.256;9.356;2022-08-19T02:20:44;100180.97;;;18.73;100.00
40073;BME280;25774;52.256;9.356;2022-08-19T02:23:13;100179.00;;;18.85;100.00
40073;BME280;25774;52.256;9.356;2022-08-19T02:25:39;100179.16;;;18.64;100.00
40073;BME280;25774;52.256;9.356;2022-08-19T02:28:05;100184.63;;;18.52;100.00
40073;BME280;25774;52.256;9.356;2022-08-19T02:30:31;100196.88;;;18.45;100.00
40073;BME280;25774;52.256;9.356;2022-08-19T02:32:56;100202.34;;;18.44;100.00
40073;BME280;25774;52.256;9.356;2022-08-19T02:35:23;100206.72;;;18.45;100.00
40073;BME280;25774;52.256;9.356;2022-08-19T02:37:48;100215.03;;;18.61;100.00
40073;BME280;25774;52.256;9.356;2022-08-19T02:40:33;100205.47;;;18.78;100.00
40073;BME280;25774;52.256;9.356;2022-08-19T02:43:00;100200.66;;;18.72;100.00
40073;BME280;25774;52.256;9.356;2022-08-19T02:45:26;100198.41;;;18.67;100.00
40073;BME280;25774;52.256;9.356;2022-08-19T02:47:52;100195.59;;;18.49;100.00
40073;BME280;25774;52.256;9.356;2022-08-19T02:50:18;100211.63;;;18.59;100.00
40073;BME280;25774;52.256;9.356;2022-08-19T02:52:43;100214.19;;;18.61;100.00
40073;BME280;25774;52.256;9.356;2022-08-19T02:55:10;100207.84;;;18.81;100.00
40073;BME280;25774;52.256;9.356;2022-08-19T02:57:36;100194.19;;;18.94;100.00
40073;BME280;25774;52.256;9.356;2022-08-19T03:00:05;100182.38;;;18.67;100.00
40073;BME280;25774;52.256;9.356;2022-08-19T03:02:32;100189.94;;;19.01;100.00
40073;BME280;25774;52.256;9.356;2022-08-19T03:04:57;100173.38;;;18.88;100.00
40073;BME280;25774;52.256;9.356;2022-08-19T03:07:22;100181.94;;;18.91;100.00
40073;BME280;25774;52.256;9.356;2022-08-19T03:09:48;100177.31;;;18.84;100.00
40073;BME280;25774;52.256;9.356;2022-08-19T03:12:13;100177.84;;;18.97;100.00
40073;BME280;25774;52.256;9.356;2022-08-19T03:14:39;100167.47;;;18.84;100.00
40073;BME280;25774;52.256;9.356;2022-08-19T03:17:05;100179.44;;;18.61;100.00
40073;BME280;25774;52.256;9.356;2022-08-19T03:19:30;100189.97;;;18.52;100.00
40073;BME280;25774;52.256;9.356;2022-08-19T03:21:57;100199.25;;;18.68;100.00
40073;BME280;25774;52.256;9.356;2022-08-19T03:24:22;100206.59;;;18.75;100.00
40073;BME280;25774;52.256;9.356;2022-08-19T03:26:51;100213.75;;;18.65;100.00
40073;BME280;25774;52.256;9.356;2022-08-19T03:29:19;100211.34;;;18.72;100.00
40073;BME280;25774;52.256;9.356;2022-08-19T03:31:45;100192.38;;;18.46;100.00
40073;BME280;25774;52.256;9.356;2022-08-19T03:34:19;100198.44;;;18.38;100.00
40073;BME280;25774;52.256;9.356;2022-08-19T03:36:45;100213.91;;;18.64;100.00
40073;BME280;25774;52.256;9.356;2022-08-19T03:39:11;100224.44;;;18.85;100.00
40073;BME280;25774;52.256;9.356;2022-08-19T03:41:39;100217.97;;;18.68;100.00
40073;BME280;25774;52.256;9.356;2022-08-19T03:44:05;100215.28;;;18.29;100.00
40073;BME280;25774;52.256;9.356;2022-08-19T03:46:32;100236.97;;;18.45;100.00
40073;BME280;25774;52.256;9.356;2022-08-19T03:49:00;100235.56;;;18.41;100.00
40073;BME280;25774;52.256;9.356;2022-08-19T03:51:31;100237.53;;;18.49;100.00
40073;BME280;25774;52.256;9.356;2022-08-19T03:54:00;100239.63;;;18.55;100.00
40073;BME280;25774;52.256;9.356;2022-08-19T03:56:27;100224.25;;;18.28;100.00
40073;BME280;25774;52.256;9.356;2022-08-19T03:58:54;100249.63;;;18.82;100.00
40073;BME280;25774;52.256;9.356;2022-08-19T04:01:22;100230.78;;;18.54;100.00
40073;BME280;25774;52.256;9.356;2022-08-19T04:03:49;100243.69;;;18.59;100.00
40073;BME280;25774;52.256;9.356;2022-08-19T04:06:18;100228.50;;;18.40;100.00
40073;BME280;25774;52.256;9.356;2022-08-19T04:08:50;100230.22;;;18.51;100.00
40073;BME280;25774;52.256;9.356;2022-08-19T04:11:23;100238.03;;;18.13;100.00
40073;BME280;25774;52.256;9.356;2022-08-19T04:13:51;100246.38;;;18.40;100.00
40073;BME280;25774;52.256;9.356;2022-08-19T04:16:19;100252.84;;;18.56;100.00
40073;BME280;25774;52.256;9.356;2022-08-19T04:18:46;100252.72;;;18.68;100.00
40073;BME280;25774;52.256;9.356;2022-08-19T04:21:30;100218.53;;;18.42;100.00
40073;BME280;25774;52.256;9.356;2022-08-19T04:23:56;100216.94;;;18.10;100.00
40073;BME280;25774;52.256;9.356;2022-08-19T04:26:24;100223.69;;;18.15;100.00
40073;BME280;25774;52.256;9.356;2022-08-19T04:28:51;100251.00;;;18.47;100.00
40073;BME280;25774;52.256;9.356;2022-08-19T04:31:25;100244.25;;;18.43;100.00
40073;BME280;25774;52.256;9.356;2022-08-19T04:33:52;100231.84;;;18.03;100.00
40073;BME280;25774;52.256;9.356;2022-08-19T04:36:23;100246.06;;;18.23;100.00
40073;BME280;25774;52.256;9.356;2022-08-19T04:38:53;100248.97;;;18.01;100.00
40073;BME280;25774;52.256;9.356;2022-08-19T04:41:19;100252.66;;;18.09;100.00
40073;BME280;25774;52.256;9.356;2022-08-19T04:44:03;100252.59;;;17.90;100.00
40073;BME280;25774;52.256;9.356;2022-08-19T04:46:28;100275.47;;;18.43;100.00
40073;BME280;25774;52.256;9.356;2022-08-19T04:48:55;100253.81;;;18.26;100.00
40073;BME280;25774;52.256;9.356;2022-08-19T04:51:22;100245.59;;;18.08;100.00
40073;BME280;25774;52.256;9.356;2022-08-19T04:53:49;100249.09;;;18.09;100.00
40073;BME280;25774;52.256;9.356;2022-08-19T04:56:16;100245.53;;;18.39;100.00
40073;BME280;25774;52.256;9.356;2022-08-19T04:58:44;100227.81;;;18.38;100.00
40073;BME280;25774;52.256;9.356;2022-08-19T05:01:18;100238.22;;;18.41;100.00
40073;BME280;25774;52.256;9.356;2022-08-19T05:03:43;100231.75;;;18.63;100.00
40073;BME280;25774;52.256;9.356;2022-08-19T05:06:11;100228.25;;;18.82;100.00
40073;BME280;25774;52.256;9.356;2022-08-19T05:08:39;100231.59;;;19.03;100.00
40073;BME280;25774;52.256;9.356;2022-08-19T05:11:13;100216.13;;;18.29;100.00
40073;BME280;25774;52.256;9.356;2022-08-19T05:13:39;100223.84;;;18.23;100.00
40073;BME280;25774;52.256;9.356;2022-08-19T05:16:06;100234.81;;;18.29;100.00
40073;BME280;25774;52.256;9.356;2022-08-19T05:18:32;100239.53;;;17.97;100.00
40073;BME280;25774;52.256;9.356;2022-08-19T05:21:17;100252.13;;;18.25;100.00
40073;BME280;25774;52.256;9.356;2022-08-19T05:24:03;100257.63;;;18.43;100.00
40073;BME280;25774;52.256;9.356;2022-08-19T05:26:29;100256.75;;;18.33;100.00
40073;BME280;25774;52.256;9.356;2022-08-19T05:28:56;100253.28;;;18.52;100.00
40073;BME280;25774;52.256;9.356;2022-08-19T05:31:21;100237.34;;;18.31;100.00
40073;BME280;25774;52.256;9.356;2022-08-19T05:33:47;100235.94;;;18.36;100.00
40073;BME280;25774;52.256;9.356;2022-08-19T05:36:13;100238.22;;;18.31;100.00
40073;BME280;25774;52.256;9.356;2022-08-19T05:38:39;100246.53;;;18.96;100.00
40073;BME280;25774;52.256;9.356;2022-08-19T05:41:09;100227.81;;;18.57;100.00
40073;BME280;25774;52.256;9.356;2022-08-19T05:43:35;100232.88;;;18.41;100.00
40073;BME280;25774;52.256;9.356;2022-08-19T05:46:00;100212.88;;;18.06;100.00
40073;BME280;25774;52.256;9.356;2022-08-19T05:48:26;100230.63;;;18.46;100.00
40073;BME280;25774;52.256;9.356;2022-08-19T05:50:52;100216.69;;;18.33;100.00
40073;BME280;25774;52.256;9.356;2022-08-19T05:53:19;100233.00;;;18.59;100.00
40073;BME280;25774;52.256;9.356;2022-08-19T05:55:45;100217.69;;;18.42;100.00
40073;BME280;25774;52.256;9.356;2022-08-19T05:58:11;100230.06;;;18.72;100.00
40073;BME280;25774;52.256;9.356;2022-08-19T06:00:37;100224.31;;;18.67;100.00
40073;BME280;25774;52.256;9.356;2022-08-19T06:03:03;100231.19;;;18.98;100.00
40073;BME280;25774;52.256;9.356;2022-08-19T06:05:29;100200.13;;;18.78;100.00
40073;BME280;25774;52.256;9.356;2022-08-19T06:07:55;100204.03;;;18.93;100.00
40073;BME280;25774;52.256;9.356;2022-08-19T06:10:21;100190.53;;;18.85;100.00
40073;BME280;25774;52.256;9.356;2022-08-19T06:12:47;100190.25;;;18.40;100.00
40073;BME280;25774;52.256;9.356;2022-08-19T06:15:13;100214.31;;;18.49;100.00
40073;BME280;25774;52.256;9.356;2022-08-19T06:17:39;100218.69;;;18.89;100.00
40073;BME280;25774;52.256;9.356;2022-08-19T06:20:09;100199.81;;;18.42;100.00
40073;BME280;25774;52.256;9.356;2022-08-19T06:22:44;100212.63;;;18.58;100.00
40073;BME280;25774;52.256;9.356;2022-08-19T06:25:10;100219.53;;;18.70;100.00
40073;BME280;25774;52.256;9.356;2022-08-19T06:27:36;100208.97;;;18.59;100.00
40073;BME280;25774;52.256;9.356;2022-08-19T06:30:03;100204.84;;;19.03;100.00
40073;BME280;25774;52.256;9.356;2022-08-19T06:32:29;100215.69;;;19.49;100.00
40073;BME280;25774;52.256;9.356;2022-08-19T06:34:54;100179.06;;;19.59;100.00
40073;BME280;25774;52.256;9.356;2022-08-19T06:37:20;100149.78;;;19.11;100.00
40073;BME280;25774;52.256;9.356;2022-08-19T06:39:47;100180.41;;;20.01;100.00
40073;BME280;25774;52.256;9.356;2022-08-19T06:42:12;100168.63;;;19.84;100.00
40073;BME280;25774;52.256;9.356;2022-08-19T06:44:42;100143.31;;;19.50;100.00
40073;BME280;25774;52.256;9.356;2022-08-19T06:47:11;100157.34;;;20.26;100.00
40073;BME280;25774;52.256;9.356;2022-08-19T06:49:36;100144.31;;;19.77;100.00
40073;BME280;25774;52.256;9.356;2022-08-19T06:52:03;100135.84;;;20.17;100.00
40073;BME280;25774;52.256;9.356;2022-08-19T06:54:29;100138.88;;;19.87;100.00
40073;BME280;25774;52.256;9.356;2022-08-19T06:56:57;100142.13;;;20.62;100.00
40073;BME280;25774;52.256;9.356;2022-08-19T06:59:24;100096.06;;;19.59;100.00
40073;BME280;25774;52.256;9.356;2022-08-19T07:01:55;100144.94;;;20.25;100.00
40073;BME280;25774;52.256;9.356;2022-08-19T07:04:27;100170.00;;;20.51;100.00
40073;BME280;25774;52.256;9.356;2022-08-19T07:07:13;100142.44;;;20.05;100.00
40073;BME280;25774;52.256;9.356;2022-08-19T07:09:42;100148.56;;;20.51;100.00
40073;BME280;25774;52.256;9.356;2022-08-19T07:12:11;100123.97;;;20.38;100.00
40073;BME280;25774;52.256;9.356;2022-08-19T07:14:38;100111.13;;;20.24;100.00
40073;BME280;25774;52.256;9.356;2022-08-19T07:17:06;100108.34;;;20.33;100.00
40073;BME280;25774;52.256;9.356;2022-08-19T07:19:33;100144.19;;;20.68;100.00
40073;BME280;25774;52.256;9.356;2022-08-19T07:22:04;100118.78;;;20.01;100.00
40073;BME280;25774;52.256;9.356;2022-08-19T07:24:30;100136.78;;;20.26;100.00
40073;BME280;25774;52.256;9.356;2022-08-19T07:26:59;100141.66;;;20.66;100.00
40073;BME280;25774;52.256;9.356;2022-08-19T07:29:31;100126.44;;;19.95;100.00
40073;BME280;25774;52.256;9.356;2022-08-19T07:32:00;100142.19;;;19.98;100.00
40073;BME280;25774;52.256;9.356;2022-08-19T07:34:28;100145.13;;;19.78;100.00
40073;BME280;25774;52.256;9.356;2022-08-19T07:36:55;100152.59;;;20.02;100.00
40073;BME280;25774;52.256;9.356;2022-08-19T07:39:24;100174.09;;;20.10;100.00
40073;BME280;25774;52.256;9.356;2022-08-19T07:41:51;100182.97;;;19.92;100.00
40073;BME280;25774;52.256;9.356;2022-08-19T07:44:16;100204.06;;;20.23;100.00
40073;BME280;25774;52.256;9.356;2022-08-19T07:46:47;100199.78;;;20.30;100.00
40073;BME280;25774;52.256;9.356;2022-08-19T07:49:13;100190.72;;;20.85;100.00
40073;BME280;25774;52.256;9.356;2022-08-19T07:51:55;100151.03;;;19.81;100.00
40073;BME280;25774;52.256;9.356;2022-08-19T07:54:23;100199.50;;;20.69;100.00
40073;BME280;25774;52.256;9.356;2022-08-19T07:56:49;100157.81;;;20.21;100.00
40073;BME280;25774;52.256;9.356;2022-08-19T07:59:17;100181.44;;;20.97;100.00
40073;BME280;25774;52.256;9.356;2022-08-19T08:01:44;100139.91;;;20.21;100.00
40073;BME280;25774;52.256;9.356;2022-08-19T08:04:10;100179.09;;;20.76;100.00
40073;BME280;25774;52.256;9.356;2022-08-19T08:06:54;100191.59;;;20.67;100.00
40073;BME280;25774;52.256;9.356;2022-08-19T08:09:41;100181.88;;;20.66;100.00
40073;BME280;25774;52.256;9.356;2022-08-19T08:12:31;100197.31;;;21.17;100.00
40073;BME280;25774;52.256;9.356;2022-08-19T08:15:00;100182.28;;;20.98;100.00
40073;BME280;25774;52.256;9.356;2022-08-19T08:17:30;100190.91;;;21.09;100.00
40073;BME280;25774;52.256;9.356;2022-08-19T08:19:56;100165.78;;;20.93;100.00
40073;BME280;25774;52.256;9.356;2022-08-19T08:22:22;100190.69;;;21.03;100.00
40073;BME280;25774;52.256;9.356;2022-08-19T08:27:36;100143.25;;;20.41;100.00
40073;BME280;25774;52.256;9.356;2022-08-19T08:30:11;100158.97;;;20.72;100.00
40073;BME280;25774;52.256;9.356;2022-08-19T08:32:39;100181.81;;;21.63;100.00
40073;BME280;25774;52.256;9.356;2022-08-19T08:35:08;100160.50;;;21.69;100.00
40073;BME280;25774;52.256;9.356;2022-08-19T08:37:33;100116.88;;;21.75;100.00
40073;BME280;25774;52.256;9.356;2022-08-19T08:40:06;100126.66;;;21.85;100.00
40073;BME280;25774;52.256;9.356;2022-08-19T08:42:40;100136.81;;;22.23;100.00
40073;BME280;25774;52.256;9.356;2022-08-19T08:45:14;100096.34;;;21.50;100.00
40073;BME280;25774;52.256;9.356;2022-08-19T08:47:48;100112.91;;;22.04;100.00
40073;BME280;25774;52.256;9.356;2022-08-19T08:50:39;100132.13;;;22.25;100.00
40073;BME280;25774;52.256;9.356;2022-08-19T08:53:07;100103.28;;;21.61;100.00
40073;BME280;25774;52.256;9.356;2022-08-19T08:55:35;100104.91;;;22.28;100.00
40073;BME280;25774;52.256;9.356;2022-08-19T08:58:10;100118.25;;;21.88;100.00
40073;BME280;25774;52.256;9.356;2022-08-19T09:00:42;100108.75;;;22.50;100.00
40073;BME280;25774;52.256;9.356;2022-08-19T09:03:25;100077.69;;;22.23;100.00
40073;BME280;25774;52.256;9.356;2022-08-19T09:06:06;100001.91;;;22.20;100.00
40073;BME280;25774;52.256;9.356;2022-08-19T09:14:42;100077.00;;;22.46;100.00
40073;BME280;25774;52.256;9.356;2022-08-19T09:17:11;100050.78;;;22.15;100.00
40073;BME280;25774;52.256;9.356;2022-08-19T09:20:12;99985.63;;;22.05;100.00
40073;BME280;25774;52.256;9.356;2022-08-19T09:22:42;100083.81;;;22.89;100.00
40073;BME280;25774;52.256;9.356;2022-08-19T09:25:13;100042.81;;;22.71;100.00
40073;BME280;25774;52.256;9.356;2022-08-19T09:27:41;100131.59;;;22.95;100.00
40073;BME280;25774;52.256;9.356;2022-08-19T09:30:08;100041.19;;;22.54;100.00
40073;BME280;25774;52.256;9.356;2022-08-19T09:35:00;100064.44;;;23.10;100.00
40073;BME280;25774;52.256;9.356;2022-08-19T09:37:26;100073.88;;;23.46;100.00
40073;BME280;25774;52.256;9.356;2022-08-19T09:39:52;99902.22;;;22.85;100.00
40073;BME280;25774;52.256;9.356;2022-08-19T09:42:18;99979.41;;;22.85;100.00
40073;BME280;25774;52.256;9.356;2022-08-19T09:44:43;100022.00;;;23.52;100.00
40073;BME280;25774;52.256;9.356;2022-08-19T09:47:10;99957.91;;;22.77;100.00
40073;BME280;25774;52.256;9.356;2022-08-19T09:49:38;100084.91;;;23.59;100.00
40073;BME280;25774;52.256;9.356;2022-08-19T09:52:05;100036.94;;;23.85;98.14
40073;BME280;25774;52.256;9.356;2022-08-19T09:54:32;99924.94;;;23.60;92.44
40073;BME280;25774;52.256;9.356;2022-08-19T09:56:58;99869.44;;;23.74;87.46
40073;BME280;25774;52.256;9.356;2022-08-19T09:59:25;99757.19;;;23.66;83.50
40073;BME280;25774;52.256;9.356;2022-08-19T10:01:51;99913.19;;;23.99;85.24
40073;BME280;25774;52.256;9.356;2022-08-19T10:04:16;99976.16;;;24.21;85.41
40073;BME280;25774;52.256;9.356;2022-08-19T10:06:42;100012.22;;;24.87;83.42
40073;BME280;25774;52.256;9.356;2022-08-19T10:09:09;99681.81;;;23.81;76.90
40073;BME280;25774;52.256;9.356;2022-08-19T10:11:38;99744.69;;;24.39;72.93
40073;BME280;25774;52.256;9.356;2022-08-19T10:14:04;99849.31;;;23.99;76.89
40073;BME280;25774;52.256;9.356;2022-08-19T10:16:31;99651.03;;;23.90;73.17
40073;BME280;25774;52.256;9.356;2022-08-19T10:18:57;99766.25;;;24.39;72.14
40073;BME280;25774;52.256;9.356;2022-08-19T10:21:29;99619.88;;;24.67;67.80
40073;BME280;25774;52.256;9.356;2022-08-19T10:23:57;99743.78;;;24.32;70.34
40073;BME280;25774;52.256;9.356;2022-08-19T10:26:28;99730.09;;;24.33;70.53
40073;BME280;25774;52.256;9.356;2022-08-19T10:28:54;99702.31;;;24.97;68.16
40073;BME280;25774;52.256;9.356;2022-08-19T10:31:24;99606.09;;;24.40;67.20
40073;BME280;25774;52.256;9.356;2022-08-19T10:33:51;99610.63;;;24.54;66.42
40073;BME280;25774;52.256;9.356;2022-08-19T10:36:30;99296.28;;;24.58;59.66
40073;BME280;25774;52.256;9.356;2022-08-19T10:38:59;99339.25;;;23.90;61.86
40073;BME280;25774;52.256;9.356;2022-08-19T10:41:31;99641.34;;;25.10;61.92
40073;BME280;25774;52.256;9.356;2022-08-19T10:44:04;99377.59;;;23.93;62.06
40073;BME280;25774;52.256;9.356;2022-08-19T10:46:31;99327.31;;;24.00;60.70
40073;BME280;25774;52.256;9.356;2022-08-19T10:48:59;99419.31;;;23.97;61.57
40073;BME280;25774;52.256;9.356;2022-08-19T10:51:27;99526.53;;;24.44;61.18
40073;BME280;25774;52.256;9.356;2022-08-19T10:54:12;99440.38;;;23.86;61.95
40073;BME280;25774;52.256;9.356;2022-08-19T10:56:37;99443.22;;;23.78;62.62
40073;BME280;25774;52.256;9.356;2022-08-19T10:59:20;99547.94;;;24.52;61.37
40073;BME280;25774;52.256;9.356;2022-08-19T11:01:47;99324.56;;;24.34;59.74
40073;BME280;25774;52.256;9.356;2022-08-19T11:04:13;99576.41;;;24.83;60.01
40073;BME280;25774;52.256;9.356;2022-08-19T11:06:40;99414.50;;;24.48;59.29
40073;BME280;25774;52.256;9.356;2022-08-19T11:09:08;99648.94;;;24.71;61.21
40073;BME280;25774;52.256;9.356;2022-08-19T11:11:34;99344.38;;;24.48;59.31
40073;BME280;25774;52.256;9.356;2022-08-19T11:14:07;99500.19;;;24.25;60.94
40073;BME280;25774;52.256;9.356;2022-08-19T11:16:32;99631.03;;;24.92;60.42
40073;BME280;25774;52.256;9.356;2022-08-19T11:18:58;99655.66;;;24.82;61.14
40073;BME280;25774;52.256;9.356;2022-08-19T11:21:32;99584.66;;;25.10;59.77
40073;BME280;25774;52.256;9.356;2022-08-19T11:24:01;99581.09;;;24.74;60.49
40073;BME280;25774;52.256;9.356;2022-08-19T11:26:28;99589.72;;;24.91;60.01
40073;BME280;25774;52.256;9.356;2022-08-19T11:28:54;99370.91;;;24.93;57.70
40073;BME280;25774;52.256;9.356;2022-08-19T11:31:26;99639.13;;;24.92;60.62
40073;BME280;25774;52.256;9.356;2022-08-19T11:33:51;99662.75;;;25.39;59.70
40073;BME280;25774;52.256;9.356;2022-08-19T11:36:19;99466.19;;;24.87;59.01
40073;BME280;25774;52.256;9.356;2022-08-19T11:38:46;99388.84;;;25.14;56.66
40073;BME280;25774;52.256;9.356;2022-08-19T11:41:14;99526.69;;;25.47;56.91
40073;BME280;25774;52.256;9.356;2022-08-19T11:43:40;99424.06;;;24.92;57.38
40073;BME280;25774;52.256;9.356;2022-08-19T11:46:09;99541.44;;;25.44;57.16
40073;BME280;25774;52.256;9.356;2022-08-19T11:48:36;99431.91;;;24.87;57.36
40073;BME280;25774;52.256;9.356;2022-08-19T11:51:09;99385.09;;;25.08;56.83
40073;BME280;25774;52.256;9.356;2022-08-19T11:53:37;99486.97;;;25.41;56.75
40073;BME280;25774;52.256;9.356;2022-08-19T11:56:05;99452.13;;;25.66;55.69
40073;BME280;25774;52.256;9.356;2022-08-19T11:58:31;99524.31;;;25.92;55.58
40073;BME280;25774;52.256;9.356;2022-08-19T12:00:56;99339.66;;;25.45;55.08
40073;BME280;25774;52.256;9.356;2022-08-19T12:03:22;99607.72;;;25.95;55.58
40073;BME280;25774;52.256;9.356;2022-08-19T12:05:47;99438.03;;;26.17;54.37
40073;BME280;25774;52.256;9.356;2022-08-19T12:08:12;99359.78;;;26.22;53.01
40073;BME280;25774;52.256;9.356;2022-08-19T12:10:40;99282.69;;;25.86;53.40
40073;BME280;25774;52.256;9.356;2022-08-19T12:13:08;99253.63;;;25.55;53.85
40073;BME280;25774;52.256;9.356;2022-08-19T12:15:38;99366.88;;;25.96;53.73
40073;BME280;25774;52.256;9.356;2022-08-19T12:18:07;99434.22;;;25.51;55.35
40073;BME280;25774;52.256;9.356;2022-08-19T12:20:37;99597.72;;;25.82;55.87
40073;BME280;25774;52.256;9.356;2022-08-19T12:23:05;99584.66;;;26.26;54.81
40073;BME280;25774;52.256;9.356;2022-08-19T12:25:31;99574.50;;;26.48;54.10
40073;BME280;25774;52.256;9.356;2022-08-19T12:27:57;99401.31;;;26.61;52.91
40073;BME280;25774;52.256;9.356;2022-08-19T12:30:23;99410.44;;;26.73;52.23
40073;BME280;25774;52.256;9.356;2022-08-19T12:32:49;99441.31;;;26.46;52.68
40073;BME280;25774;52.256;9.356;2022-08-19T12:35:17;99303.75;;;26.49;51.90
40073;BME280;25774;52.256;9.356;2022-08-19T12:37:45;99341.44;;;26.31;52.45
40073;BME280;25774;52.256;9.356;2022-08-19T12:40:12;99365.38;;;26.34;52.85
40073;BME280;25774;52.256;9.356;2022-08-19T12:42:38;99475.16;;;26.88;51.94
40073;BME280;25774;52.256;9.356;2022-08-19T12:45:08;99401.00;;;26.89;51.51
40073;BME280;25774;52.256;9.356;2022-08-19T12:47:36;99517.34;;;27.22;51.42
40073;BME280;25774;52.256;9.356;2022-08-19T12:50:02;99344.41;;;27.19;50.35
40073;BME280;25774;52.256;9.356;2022-08-19T12:52:28;99136.66;;;26.70;49.83
40073;BME280;25774;52.256;9.356;2022-08-19T12:54:55;99427.03;;;27.67;49.52
40073;BME280;25774;52.256;9.356;2022-08-19T12:57:26;99196.13;;;27.08;49.43
40073;BME280;25774;52.256;9.356;2022-08-19T12:59:52;99394.28;;;27.68;48.79
40073;BME280;25774;52.256;9.356;2022-08-19T13:02:19;99082.47;;;27.56;47.40